Sciota, PA (18354)

3:49 PM EDT on July 04, 2015 (GMT -0400)
Hamilton Square | | Change Station
CLOSE
Current Station
Personal Weather Station
Location: Stroudsburg, PA
Elevation: 650 ft
Nearby Weather Stations

Elev 650 ft 40.93 °N, 75.28 °W | Updated 5 minutes ago

Mostly Cloudy
Mostly Cloudy
73.8 °F
Feels Like 76 °F
N
2.2
Wind Variable Wind from NNE

Today
High -- | Low -- °F
--% Chance of Precip.
Yesterday
High -- | Low -- °F
Precip. -- in
5:34 AM 8:36 PM
Waning Gibbous, 90% visible
Pressure 29.99 in
Visibility 10.0 miles
Clouds Scattered Clouds 1300 ft
Scattered Clouds 4100 ft
Overcast 8000 ft
Heat Index 76 °F
Dew Point 64 °F
Humidity 71%
Rainfall 0.25 in
Snow Depth Not available.
UV 3 out of 12
Pollen .50 out of 12
Air Quality Not available.
Flu Activity Not available.
METAR KMPO 041853Z AUTO 10006KT 10SM SCT013 SCT041 OVC080 18/13 A3000 RMK AO2 SLP154 T01780133 $

More Conditions Fewer Conditions

Pressure 29.99 in
Visibility 10.0 miles
Clouds Scattered Clouds 1300 ft
Scattered Clouds 4100 ft
Overcast 8000 ft
Heat Index 76 °F
Dew Point 64 °F
Humidity 71%
Rainfall 0.25 in
Snow Depth Not available.
UV 3 out of 12
Pollen .50 out of 12
Air Quality Not available.
Flu Activity Not available.
METAR KMPO 041853Z AUTO 10006KT 10SM SCT013 SCT041 OVC080 18/13 A3000 RMK AO2 SLP154 T01780133 $

More Conditions Fewer Conditions

Nowcast | as of 2:05 PM EDT on July 4, 2015

Conditions will continue to dry out between 2 and 4 PM this afternoon across eastern Pennsylvania and the Eastern Shore of Maryland as the bulk of the rain shifts east of the area. You still may encounter a brief shower or sprinkle, especially toward Philadelphia but most locations will remain dry and cloudy during the mid afternoon. Temperatures will slowly warm into the upper 60s and lower 70s.

×

10-Day Weather Forecast

×

Almanac

Astronomy

Jul. 04, 2015 Rise Set
Actual Time
Civil Twilight
Nautical Twilight
Astronomical Twilight
Moon
Length of Visible Light
Length of Day
Tomorrow will be .
, % of the Moon is Illuminated

Today's Extremes

State Highs State Lows

Community

WunderPhotos

Upload Photos

1,835,065 photos uploaded!

WunderBlogs® & News

Nearby

Air Quality

  Air Quality AQ Index Pollutant
Not available.

Snow Depth

Station Depth Elevation

Earthquake Activity

City Distance Mag. Time & Date
Minimum magnitude displayed is 2.5.

Coastal Water Temperatures

Place Temperature

Stations

Nearby Weather Stations

Station Location Temp. Windchill Dew Point Humidity Wind Precip. Elev Updated Type